Time;durP1;ratioP1;P1;durP2;ratioP2;P2;SDS_P1;SDS_P2;PMS_P1;PMS_P2;Temp;Humidity;BMP_temperature;BMP_pressure;BME280_temperature;BME280_humidity;BME280_pressure;Samples;Min_cycle;Max_cycle;Signal;HPM_P1;HPM_P2
2022/10/20 00:00:31;;;;;;;25.15;12.90;;;;;;;7.92;100.00;99012.43;1761349;81;20935;-80
2022/10/20 00:02:59;;;;;;;20.00;12.95;;;;;;;7.93;100.00;99021.62;1731440;81;21042;-78
2022/10/20 00:05:25;;;;;;;22.82;12.45;;;;;;;7.92;100.00;99018.65;1734323;81;20912;-80
2022/10/20 00:07:51;;;;;;;20.80;14.38;;;;;;;7.91;100.00;99014.31;1730965;82;21388;-78
2022/10/20 00:10:17;;;;;;;22.58;13.50;;;;;;;7.85;100.00;99016.60;1731009;82;20976;-80
2022/10/20 00:12:43;;;;;;;22.00;13.50;;;;;;;7.80;100.00;99017.05;1730956;82;20996;-80
2022/10/20 00:15:09;;;;;;;24.20;14.65;;;;;;;7.70;100.00;99014.95;1740516;81;21515;-80
2022/10/20 00:17:35;;;;;;;22.05;13.28;;;;;;;7.66;100.00;99016.47;1745971;82;21014;-78
2022/10/20 00:20:01;;;;;;;29.45;16.87;;;;;;;7.62;100.00;99020.17;1768747;81;21170;-78
2022/10/20 00:22:27;;;;;;;22.05;14.00;;;;;;;7.57;100.00;99020.05;1776676;80;20861;-80
2022/10/20 00:24:53;;;;;;;25.50;15.70;;;;;;;7.59;100.00;99015.77;1746019;80;20940;-77
2022/10/20 00:27:19;;;;;;;26.77;15.20;;;;;;;7.58;100.00;99014.12;1745833;81;20850;-80
2022/10/20 00:29:47;;;;;;;29.02;15.83;;;;;;;7.55;100.00;99010.03;1745783;82;21152;-78
2022/10/20 00:32:14;;;;;;;32.03;17.52;;;;;;;7.52;100.00;99009.66;1745923;81;22100;-77
2022/10/20 00:34:40;;;;;;;31.68;14.28;;;;;;;7.50;100.00;99009.91;1745739;82;21040;-78
2022/10/20 00:37:06;;;;;;;23.62;15.38;;;;;;;7.53;100.00;99016.73;1746096;81;21080;-80
2022/10/20 00:39:32;;;;;;;30.68;14.93;;;;;;;7.56;100.00;99017.06;1746034;81;21635;-81
2022/10/20 00:42:02;;;;;;;24.35;14.63;;;;;;;7.61;100.00;99012.33;1745797;82;20901;-78
2022/10/20 00:44:56;;;;;;;24.47;14.65;;;;;;;7.65;100.00;99020.22;1745987;81;21937;-78
2022/10/20 00:47:53;;;;;;;23.30;13.10;;;;;;;7.67;100.00;99014.58;1745915;81;21140;-80
2022/10/20 00:50:29;;;;;;;22.80;13.50;;;;;;;7.66;100.00;99015.11;1745636;81;21020;-81
2022/10/20 00:52:56;;;;;;;21.42;12.70;;;;;;;7.63;100.00;99011.55;1745729;82;21575;-78
2022/10/20 00:55:25;;;;;;;21.93;13.38;;;;;;;7.58;100.00;99009.55;1692182;82;21008;-79
2022/10/20 00:57:52;;;;;;;27.77;13.15;;;;;;;7.52;100.00;99006.47;1745859;81;21776;-80
2022/10/20 01:00:18;;;;;;;20.27;12.07;;;;;;;7.45;100.00;99009.81;1745712;82;20985;-80
2022/10/20 01:02:44;;;;;;;19.35;11.88;;;;;;;7.38;100.00;99005.06;1745923;81;21559;-77
2022/10/20 01:05:10;;;;;;;23.25;11.22;;;;;;;7.28;100.00;99000.26;1750798;81;21041;-81
2022/10/20 01:07:36;;;;;;;18.95;10.85;;;;;;;7.20;100.00;98996.56;1769996;79;21008;-77
2022/10/20 01:10:03;;;;;;;25.37;12.50;;;;;;;7.12;100.00;99000.95;1773092;80;22283;-80
2022/10/20 01:12:43;;;;;;;21.70;12.70;;;;;;;7.06;100.00;99004.57;1782632;80;20981;-78
2022/10/20 01:15:42;;;;;;;28.73;13.00;;;;;;;6.98;100.00;99006.26;1749238;80;20989;-80
2022/10/20 01:18:13;;;;;;;20.90;11.85;;;;;;;6.89;100.00;99003.08;1762565;81;28162;-77
2022/10/20 01:21:20;;;;;;;17.85;11.97;;;;;;;6.79;100.00;99006.88;1762088;81;21063;-78
2022/10/20 01:24:25;;;;;;;23.35;11.68;;;;;;;6.69;100.00;99003.40;1762560;81;22009;-77
2022/10/20 01:27:29;;;;;;;18.15;11.08;;;;;;;6.56;100.00;99008.97;1761660;81;20989;-77
2022/10/20 01:30:17;;;;;;;18.10;9.93;;;;;;;6.45;100.00;99009.23;1762731;81;21020;-78
2022/10/20 01:32:57;;;;;;;15.25;9.95;;;;;;;6.37;100.00;99012.25;1702621;81;22192;-80
2022/10/20 01:35:52;;;;;;;20.55;11.33;;;;;;;6.30;100.00;99016.08;1761991;81;21425;-77
2022/10/20 01:38:38;;;;;;;18.55;9.85;;;;;;;6.27;100.00;99009.28;1744895;82;21168;-80
2022/10/20 01:41:31;;;;;;;17.23;10.78;;;;;;;6.24;100.00;99005.72;1762296;81;21010;-80
2022/10/20 01:43:56;;;;;;;51.10;19.50;;;;;;;6.28;100.00;99008.77;1762306;81;21496;-77
2022/10/20 01:46:22;;;;;;;25.02;14.30;;;;;;;6.19;100.00;99002.34;1744848;82;20866;-77
2022/10/20 01:48:48;;;;;;;20.10;11.75;;;;;;;6.10;100.00;99001.02;1762458;81;21020;-77
2022/10/20 01:51:14;;;;;;;23.67;12.55;;;;;;;6.03;100.00;99007.53;1715340;82;21072;-77
2022/10/20 01:53:40;;;;;;;31.93;15.98;;;;;;;5.86;100.00;99005.94;1762554;81;20889;-77
2022/10/20 01:56:21;;;;;;;33.38;15.32;;;;;;;5.73;100.00;99009.63;1744961;82;21011;-79
2022/10/20 01:59:16;;;;;;;37.13;17.07;;;;;;;5.70;100.00;99017.30;1744411;82;21489;-80
2022/10/20 02:01:54;;;;;;;26.57;13.55;;;;;;;5.60;100.00;99019.16;1762234;81;21445;-77
2022/10/20 02:04:25;;;;;;;23.07;11.60;;;;;;;5.54;100.00;99015.48;1757889;81;21345;-77
2022/10/20 02:07:16;;;;;;;24.27;11.33;;;;;;;5.47;100.00;99018.80;1751615;81;20979;-77
2022/10/20 02:09:47;;;;;;;18.67;11.15;;;;;;;5.44;100.00;99011.67;1751876;81;21060;-77
2022/10/20 02:12:21;;;;;;;18.62;11.15;;;;;;;5.43;100.00;99020.79;1751967;81;21386;-77
2022/10/20 02:14:47;;;;;;;19.57;10.53;;;;;;;5.40;100.00;99014.00;1754310;81;21019;-77
2022/10/20 02:17:14;;;;;;;19.00;10.90;;;;;;;5.35;100.00;99015.17;1744691;82;21207;-77
2022/10/20 02:19:42;;;;;;;18.80;10.82;;;;;;;5.29;100.00;99010.16;1762852;81;21067;-77
2022/10/20 02:22:11;;;;;;;16.40;10.40;;;;;;;5.26;100.00;99017.33;1762393;81;20992;-77
2022/10/20 02:24:38;;;;;;;18.65;10.35;;;;;;;5.26;100.00;99015.16;1745082;82;21064;-80
2022/10/20 02:27:12;;;;;;;19.90;9.93;;;;;;;5.25;100.00;99017.55;1762475;81;20973;-77
2022/10/20 02:29:43;;;;;;;19.57;11.08;;;;;;;5.23;100.00;99012.92;1762821;81;22043;-80
2022/10/20 02:32:09;;;;;;;21.68;10.85;;;;;;;5.22;100.00;99016.66;1762389;81;21005;-81
2022/10/20 02:34:35;;;;;;;22.60;12.03;;;;;;;5.23;100.00;99017.78;1745054;82;21072;-77
2022/10/20 02:37:01;;;;;;;19.82;11.57;;;;;;;5.23;100.00;99018.30;1732670;81;21483;-80
2022/10/20 02:39:27;;;;;;;20.10;11.48;;;;;;;5.20;100.00;99014.69;1744974;82;20874;-80
2022/10/20 02:41:54;;;;;;;21.97;10.82;;;;;;;5.20;100.00;99016.86;1731861;81;40883;-81
2022/10/20 02:44:21;;;;;;;19.67;11.40;;;;;;;5.21;100.00;99017.67;1762349;81;21449;-80
2022/10/20 02:46:47;;;;;;;17.95;10.03;;;;;;;5.19;100.00;99021.94;1762371;81;21036;-80
2022/10/20 02:49:13;;;;;;;18.85;11.80;;;;;;;5.17;100.00;99014.62;1744787;82;21012;-80
2022/10/20 02:51:39;;;;;;;18.60;10.50;;;;;;;5.21;100.00;99013.64;1762645;81;20894;-80
2022/10/20 02:54:05;;;;;;;16.77;10.65;;;;;;;5.25;100.00;99010.83;1744751;82;21722;-77
2022/10/20 02:56:31;;;;;;;19.35;10.75;;;;;;;5.25;100.00;99018.90;1762525;81;20909;-79
2022/10/20 02:58:57;;;;;;;17.45;11.22;;;;;;;5.22;100.00;99020.69;1744878;82;21608;-77
2022/10/20 03:01:24;;;;;;;19.55;10.78;;;;;;;5.20;100.00;99027.61;1762627;81;20977;-80
2022/10/20 03:03:50;;;;;;;20.65;11.38;;;;;;;5.20;100.00;99023.58;1762828;81;21027;-77
2022/10/20 03:06:16;;;;;;;17.62;10.60;;;;;;;5.20;100.00;99027.61;1764368;81;21280;-80
2022/10/20 03:08:42;;;;;;;22.37;12.15;;;;;;;5.17;100.00;99025.89;1764149;81;20892;-77
2022/10/20 03:11:08;;;;;;;20.80;11.40;;;;;;;5.16;100.00;99026.41;1764051;81;20860;-80
2022/10/20 03:13:34;;;;;;;19.32;11.33;;;;;;;5.09;100.00;99025.13;1764100;81;21019;-80
2022/10/20 03:16:00;;;;;;;20.82;13.28;;;;;;;5.04;100.00;99034.38;1743037;81;20982;-80
2022/10/20 03:18:26;;;;;;;17.80;11.30;;;;;;;4.95;100.00;99031.63;1733643;82;21147;-78
2022/10/20 03:20:53;;;;;;;23.42;12.18;;;;;;;4.87;100.00;99035.11;1733792;81;20943;-80
2022/10/20 03:23:18;;;;;;;23.02;12.93;;;;;;;4.84;100.00;99037.72;1733733;82;21058;-80
2022/10/20 03:25:44;;;;;;;18.12;11.45;;;;;;;4.81;100.00;99038.98;1733881;82;21601;-77
2022/10/20 03:28:10;;;;;;;23.20;12.98;;;;;;;4.78;100.00;99038.06;1733800;82;20971;-77
2022/10/20 03:30:36;;;;;;;19.80;11.75;;;;;;;4.76;100.00;99038.80;1733856;82;22062;-80
2022/10/20 03:33:02;;;;;;;19.57;12.05;;;;;;;4.75;100.00;99040.37;1733659;82;21458;-80
2022/10/20 03:35:28;;;;;;;23.27;14.10;;;;;;;4.76;100.00;99049.55;1733868;82;21385;-78
2022/10/20 03:37:54;;;;;;;19.98;12.68;;;;;;;4.71;100.00;99048.57;1733808;82;20872;-80
2022/10/20 03:40:20;;;;;;;23.60;12.70;;;;;;;4.72;100.00;99047.53;1733861;82;21598;-80
2022/10/20 03:42:46;;;;;;;20.70;12.95;;;;;;;4.71;100.00;99042.68;1733701;82;21235;-80
2022/10/20 03:45:12;;;;;;;26.77;13.72;;;;;;;4.73;100.00;99043.80;1733663;82;21526;-77
2022/10/20 03:47:38;;;;;;;20.12;12.43;;;;;;;4.72;100.00;99049.69;1733567;82;20864;-77
2022/10/20 03:50:04;;;;;;;18.37;11.12;;;;;;;4.70;100.00;99041.04;1734070;82;21093;-78
2022/10/20 03:52:30;;;;;;;18.57;10.53;;;;;;;4.72;100.00;99052.89;1733499;82;21102;-77
2022/10/20 03:54:56;;;;;;;23.20;10.38;;;;;;;4.72;100.00;99057.75;1733927;82;21052;-77
2022/10/20 03:57:22;;;;;;;19.42;10.15;;;;;;;4.78;100.00;99053.35;1733693;82;20887;-81
2022/10/20 03:59:48;;;;;;;19.42;10.20;;;;;;;4.78;100.00;99054.69;1733509;82;21450;-77
2022/10/20 04:02:26;;;;;;;18.77;11.38;;;;;;;4.73;100.00;99055.36;1733733;82;20927;-78
2022/10/20 04:04:52;;;;;;;18.65;11.10;;;;;;;4.70;100.00;99061.66;1749888;81;21000;-77
2022/10/20 04:07:18;;;;;;;29.37;11.50;;;;;;;4.71;100.00;99065.50;1764146;81;21853;-80
2022/10/20 04:09:43;;;;;;;21.52;10.43;;;;;;;4.71;100.00;99071.39;1760527;81;20990;-77
2022/10/20 04:12:09;;;;;;;30.00;12.00;;;;;;;4.64;100.00;99063.37;1742751;81;20959;-80
2022/10/20 04:14:35;;;;;;;20.37;10.03;;;;;;;4.64;100.00;99065.23;1759297;81;21362;-77
2022/10/20 04:17:01;;;;;;;19.15;10.10;;;;;;;4.63;100.00;99066.28;1736377;81;21058;-77
2022/10/20 04:19:27;;;;;;;34.88;14.73;;;;;;;4.56;100.00;99064.97;1742994;81;21624;-77
2022/10/20 04:21:53;;;;;;;32.53;15.98;;;;;;;4.49;100.00;99069.55;1744764;81;20995;-80
2022/10/20 04:24:19;;;;;;;39.45;17.25;;;;;;;4.47;100.00;99064.92;1744145;81;20876;-80
2022/10/20 04:26:45;;;;;;;26.70;15.10;;;;;;;4.39;100.00;99059.28;1744644;81;20994;-77
2022/10/20 04:29:10;;;;;;;30.25;14.30;;;;;;;4.36;100.00;99063.74;1690146;81;20963;-80
2022/10/20 04:31:36;;;;;;;27.40;13.05;;;;;;;4.28;100.00;99055.94;1745144;81;21140;-77
2022/10/20 04:34:02;;;;;;;32.70;14.68;;;;;;;4.23;100.00;99053.88;1740697;81;21668;-77
2022/10/20 04:36:28;;;;;;;36.20;15.20;;;;;;;4.15;100.00;99050.62;1738961;79;21046;-77
2022/10/20 04:38:54;;;;;;;28.95;13.55;;;;;;;4.13;100.00;99053.52;1744104;81;20971;-80
2022/10/20 04:41:20;;;;;;;29.30;14.05;;;;;;;4.08;100.00;99047.13;1733941;81;20860;-77
2022/10/20 04:43:53;;;;;;;22.37;12.33;;;;;;;4.07;100.00;99043.63;1748441;79;21314;-77
2022/10/20 04:46:19;;;;;;;22.75;12.10;;;;;;;4.04;100.00;99043.25;1748345;81;21126;-80
2022/10/20 04:48:45;;;;;;;21.20;11.97;;;;;;;4.07;100.00;99044.97;1733850;81;20919;-80
2022/10/20 04:51:13;;;;;;;22.98;12.98;;;;;;;4.07;100.00;99046.31;1733675;81;20900;-80
2022/10/20 04:53:39;;;;;;;22.30;10.72;;;;;;;4.06;100.00;99049.22;1734064;81;21121;-76
2022/10/20 04:56:06;;;;;;;20.92;11.90;;;;;;;3.99;100.00;99054.59;1738459;81;22048;-77
2022/10/20 04:58:32;;;;;;;23.25;12.58;;;;;;;3.92;100.00;99052.45;1758290;79;21038;-77
2022/10/20 05:01:07;;;;;;;20.10;11.05;;;;;;;3.92;100.00;99053.79;1769764;79;21065;-79
2022/10/20 05:03:34;;;;;;;22.90;13.08;;;;;;;3.90;100.00;99050.50;1758709;79;21070;-80
2022/10/20 05:06:13;;;;;;;28.52;12.98;;;;;;;3.94;100.00;99056.59;1741880;81;21089;-77
2022/10/20 05:08:40;;;;;;;24.32;10.82;;;;;;;3.90;100.00;99056.69;1743988;79;21547;-80
2022/10/20 05:11:07;;;;;;;25.05;11.75;;;;;;;3.91;100.00;99061.02;1756304;80;20998;-80
2022/10/20 05:13:32;;;;;;;23.60;13.32;;;;;;;3.86;100.00;99057.34;1749936;81;20920;-77
2022/10/20 05:15:58;;;;;;;27.42;13.10;;;;;;;3.77;100.00;99056.75;1761676;81;21534;-78
2022/10/20 05:18:24;;;;;;;29.25;12.18;;;;;;;3.79;100.00;99060.55;1744957;81;21571;-80
2022/10/20 05:20:50;;;;;;;22.48;12.85;;;;;;;3.77;100.00;99059.95;1754695;81;21839;-80
2022/10/20 05:23:16;;;;;;;24.80;12.35;;;;;;;3.75;100.00;99058.79;1768297;81;20932;-77
2022/10/20 05:25:42;;;;;;;19.60;11.38;;;;;;;3.70;100.00;99060.47;1759829;81;20969;-77
2022/10/20 05:28:08;;;;;;;17.75;10.05;;;;;;;3.69;100.00;99066.36;1758391;81;20964;-77
2022/10/20 05:30:34;;;;;;;19.45;10.80;;;;;;;3.73;100.00;99072.11;1754774;81;21128;-77
2022/10/20 05:33:00;;;;;;;22.40;11.55;;;;;;;3.69;100.00;99073.06;1745140;81;21150;-77
2022/10/20 05:35:27;;;;;;;19.85;10.08;;;;;;;3.69;100.00;99070.38;1769509;81;21650;-80
2022/10/20 05:37:53;;;;;;;19.37;10.45;;;;;;;3.71;100.00;99080.37;1749314;80;22020;-80
2022/10/20 05:40:19;;;;;;;19.62;10.88;;;;;;;3.73;100.00;99082.31;1757056;80;21122;-80
2022/10/20 05:42:45;;;;;;;18.45;11.53;;;;;;;3.76;100.00;99082.40;1739114;80;20900;-77
2022/10/20 05:45:11;;;;;;;21.10;11.35;;;;;;;3.75;100.00;99089.62;1727583;82;21009;-77
2022/10/20 05:47:37;;;;;;;21.20;12.40;;;;;;;3.83;100.00;99094.76;1732976;80;20954;-77
2022/10/20 05:50:03;;;;;;;21.65;10.80;;;;;;;3.92;100.00;99098.03;1761421;81;21578;-77
2022/10/20 05:52:29;;;;;;;26.95;11.90;;;;;;;3.92;100.00;99100.20;1746278;80;21072;-80
2022/10/20 05:54:55;;;;;;;25.97;11.97;;;;;;;3.95;100.00;99097.64;1746139;81;20946;-80
2022/10/20 05:57:21;;;;;;;23.77;12.53;;;;;;;3.94;100.00;99104.04;1749715;80;21162;-80
2022/10/20 05:59:47;;;;;;;22.13;12.58;;;;;;;3.95;100.00;99111.87;1791310;80;21658;-80
2022/10/20 06:02:13;;;;;;;20.80;11.60;;;;;;;3.94;100.00;99110.75;1758876;80;20945;-80
2022/10/20 06:04:39;;;;;;;20.08;11.18;;;;;;;3.92;100.00;99114.95;1753483;81;20977;-77
2022/10/20 06:07:05;;;;;;;19.73;10.85;;;;;;;3.96;100.00;99116.72;1741073;82;20921;-80
2022/10/20 06:09:31;;;;;;;21.00;11.35;;;;;;;3.91;100.00;99117.84;1758708;79;21148;-77
2022/10/20 06:11:57;;;;;;;21.35;11.10;;;;;;;3.91;100.00;99115.17;1751538;79;21020;-80
2022/10/20 06:14:24;;;;;;;21.50;10.65;;;;;;;3.95;100.00;99122.59;1748371;81;21053;-77
2022/10/20 06:16:51;;;;;;;19.87;10.40;;;;;;;3.99;100.00;99124.33;1752664;79;21019;-77
2022/10/20 06:19:18;;;;;;;19.87;10.53;;;;;;;4.09;100.00;99127.39;1740650;81;21406;-80
2022/10/20 06:21:44;;;;;;;59.45;30.35;;;;;;;4.12;100.00;99119.46;1754708;81;21035;-77
2022/10/20 06:24:10;;;;;;;215.77;92.65;;;;;;;4.14;100.00;99118.20;1760784;79;20928;-77
2022/10/20 06:26:36;;;;;;;185.82;84.77;;;;;;;4.19;100.00;99122.43;1761627;81;21119;-80
2022/10/20 06:29:07;;;;;;;80.65;43.17;;;;;;;4.20;100.00;99124.08;1755183;79;21035;-80
2022/10/20 06:31:35;;;;;;;27.22;17.15;;;;;;;4.24;100.00;99125.80;1720924;81;21060;-79
2022/10/20 06:34:06;;;;;;;24.40;12.25;;;;;;;4.29;100.00;99130.55;1749344;79;21586;-77
2022/10/20 06:36:36;;;;;;;23.07;11.25;;;;;;;4.31;100.00;99131.16;1729178;81;21474;-80
2022/10/20 06:39:04;;;;;;;22.60;13.32;;;;;;;4.22;100.00;99131.91;1766586;79;21080;-77
2022/10/20 06:41:30;;;;;;;35.63;21.55;;;;;;;4.22;100.00;99130.56;1735559;80;20998;-80
2022/10/20 06:43:59;;;;;;;22.50;13.10;;;;;;;4.11;100.00;99128.03;1748814;79;20976;-80
2022/10/20 06:46:27;;;;;;;28.83;21.27;;;;;;;4.22;100.00;99132.73;1756785;79;21572;-77
2022/10/20 06:48:53;;;;;;;19.27;13.60;;;;;;;4.17;100.00;99129.84;1761357;79;21154;-77
2022/10/20 06:51:20;;;;;;;23.85;10.80;;;;;;;4.30;100.00;99134.88;1734449;81;22358;-77
2022/10/20 06:53:47;;;;;;;32.40;17.23;;;;;;;4.50;100.00;99138.30;1718688;81;21039;-80
2022/10/20 06:56:16;;;;;;;32.08;17.52;;;;;;;4.73;100.00;99135.09;1762685;81;21374;-77
2022/10/20 06:58:44;;;;;;;36.08;17.65;;;;;;;4.89;100.00;99133.77;1771942;79;21109;-78
2022/10/20 07:01:22;;;;;;;34.78;21.87;;;;;;;5.05;100.00;99138.63;1720218;81;21170;-80
2022/10/20 07:03:49;;;;;;;32.77;15.00;;;;;;;5.16;100.00;99127.17;1769463;80;20985;-81
2022/10/20 07:06:17;;;;;;;27.30;14.85;;;;;;;5.39;100.00;99127.94;1792145;79;21398;-80
2022/10/20 07:08:43;;;;;;;31.65;14.00;;;;;;;5.48;100.00;99132.00;1792547;80;21332;-80
2022/10/20 07:11:13;;;;;;;25.37;13.25;;;;;;;5.57;100.00;99129.86;1784953;80;21277;-80
2022/10/20 07:13:39;;;;;;;36.10;18.02;;;;;;;5.61;100.00;99131.05;1715227;82;21047;-80
2022/10/20 07:16:07;;;;;;;38.85;18.02;;;;;;;5.64;100.00;99131.45;1738780;81;20945;-80
2022/10/20 07:18:32;;;;;;;24.02;15.15;;;;;;;5.75;100.00;99129.89;1751808;80;21071;-79
2022/10/20 07:21:00;;;;;;;33.78;15.35;;;;;;;5.79;100.00;99136.98;1745930;81;20888;-78
2022/10/20 07:23:27;;;;;;;30.45;15.93;;;;;;;5.79;100.00;99125.70;1738742;81;21031;-81
2022/10/20 07:26:19;;;;;;;30.88;16.85;;;;;;;5.84;100.00;99129.09;1753134;80;21004;-78
2022/10/20 07:28:47;;;;;;;27.98;15.83;;;;;;;5.99;100.00;99120.70;1754886;80;21005;-78
2022/10/20 07:31:17;;;;;;;24.18;14.70;;;;;;;6.15;100.00;99116.89;1729923;82;21126;-78
2022/10/20 07:33:43;;;;;;;22.82;13.43;;;;;;;6.31;100.00;99111.41;1742477;81;21352;-80
2022/10/20 07:36:15;;;;;;;23.90;14.58;;;;;;;6.52;100.00;99109.31;1749951;80;21136;-78
2022/10/20 07:38:41;;;;;;;21.50;11.78;;;;;;;6.69;100.00;99103.59;1756568;80;21570;-77
2022/10/20 07:41:07;;;;;;;21.15;11.48;;;;;;;6.86;100.00;99105.94;1754418;81;21040;-78
2022/10/20 07:43:34;;;;;;;21.55;12.28;;;;;;;7.03;100.00;99106.11;1755770;80;21051;-80
2022/10/20 07:46:01;;;;;;;20.50;12.28;;;;;;;7.25;100.00;99093.72;1752261;80;21466;-80
2022/10/20 07:48:27;;;;;;;23.30;11.73;;;;;;;7.34;100.00;99095.55;1749730;80;22004;-80
2022/10/20 07:50:52;;;;;;;21.87;14.05;;;;;;;7.40;100.00;99089.77;1744597;80;21403;-81
2022/10/20 07:53:18;;;;;;;19.75;11.48;;;;;;;7.30;100.00;99091.69;1741839;80;20904;-80
2022/10/20 07:55:44;;;;;;;19.57;11.45;;;;;;;7.24;100.00;99083.99;1743889;80;20868;-78
2022/10/20 07:58:11;;;;;;;19.92;11.48;;;;;;;7.02;100.00;99085.08;1749054;80;21499;-80
2022/10/20 08:00:37;;;;;;;21.10;13.18;;;;;;;6.95;100.00;99087.57;1744370;81;21048;-80
2022/10/20 08:03:03;;;;;;;22.22;12.95;;;;;;;6.97;100.00;99084.94;1754509;80;20936;-77
2022/10/20 08:05:29;;;;;;;20.20;11.00;;;;;;;6.96;100.00;99084.64;1749190;80;20873;-80
2022/10/20 08:07:55;;;;;;;18.37;11.45;;;;;;;6.96;100.00;99087.34;1759188;80;20944;-80
2022/10/20 08:10:21;;;;;;;20.92;10.18;;;;;;;7.00;100.00;99087.69;1753902;80;21097;-81
2022/10/20 08:12:47;;;;;;;18.07;10.98;;;;;;;7.02;100.00;99082.38;1735751;81;21125;-80
2022/10/20 08:15:13;;;;;;;24.75;10.82;;;;;;;7.00;100.00;99083.11;1716458;80;20891;-77
2022/10/20 08:17:39;;;;;;;69.12;39.15;;;;;;;7.02;100.00;99070.78;1731318;80;20963;-80
2022/10/20 08:20:06;;;;;;;16.90;12.20;;;;;;;7.05;100.00;99084.60;1735421;81;20893;-81
2022/10/20 08:22:32;;;;;;;16.90;10.55;;;;;;;7.11;100.00;99088.27;1763424;80;21043;-81
2022/10/20 08:24:58;;;;;;;16.90;10.75;;;;;;;7.16;100.00;99084.33;1773519;79;21309;-78
2022/10/20 08:27:24;;;;;;;16.97;13.25;;;;;;;7.46;100.00;99087.48;1748650;80;21638;-81
2022/10/20 08:29:50;;;;;;;16.20;9.63;;;;;;;9.65;93.88;99082.30;1751251;80;20975;-81
2022/10/20 08:32:15;;;;;;;15.05;9.50;;;;;;;11.35;94.95;99078.09;1747442;81;21589;-81
2022/10/20 08:34:41;;;;;;;11.15;8.55;;;;;;;10.39;88.74;99081.45;1753392;81;21039;-78
2022/10/20 08:37:07;;;;;;;13.50;8.55;;;;;;;10.06;94.04;99085.06;1747193;81;21135;-78
2022/10/20 08:39:33;;;;;;;14.07;9.18;;;;;;;9.58;91.18;99084.67;1735185;81;20971;-81
2022/10/20 08:41:59;;;;;;;14.33;8.15;;;;;;;9.25;89.68;99076.55;1729843;82;21058;-78
2022/10/20 08:44:28;;;;;;;14.98;7.75;;;;;;;9.25;93.22;99077.38;1762347;80;20896;-81
2022/10/20 08:46:54;;;;;;;11.90;7.55;;;;;;;9.21;94.68;99082.97;1739179;81;21323;-81
2022/10/20 08:49:29;;;;;;;15.23;8.03;;;;;;;9.15;95.01;99083.97;1739902;81;21873;-81
2022/10/20 08:51:57;;;;;;;10.30;6.03;;;;;;;9.13;95.72;99076.61;1744266;81;21095;-81
2022/10/20 08:54:23;;;;;;;12.00;6.80;;;;;;;9.03;92.21;99077.79;1745225;81;21575;-78
2022/10/20 08:56:49;;;;;;;16.00;6.85;;;;;;;8.98;92.54;99070.43;1759898;81;20907;-78
2022/10/20 08:59:33;;;;;;;10.08;6.85;;;;;;;9.01;93.20;99059.65;1760109;81;21713;-78
2022/10/20 09:01:59;;;;;;;12.18;6.00;;;;;;;8.96;92.69;99061.72;1751029;80;21258;-78
2022/10/20 09:04:41;;;;;;;7.60;5.55;;;;;;;8.95;88.72;99057.38;1740322;81;21438;-78
2022/10/20 09:07:32;;;;;;;12.33;8.18;;;;;;;8.96;91.36;99061.72;1743915;81;21113;-80
2022/10/20 09:10:12;;;;;;;12.07;6.78;;;;;;;9.03;92.59;99052.11;1710167;82;21591;-78
2022/10/20 09:12:44;;;;;;;14.47;7.92;;;;;;;9.10;92.88;99050.61;1734087;80;21126;-78
2022/10/20 09:15:10;;;;;;;47.03;24.85;;;;;;;9.19;91.68;99050.48;1757436;80;21300;-78
2022/10/20 09:17:36;;;;;;;18.35;10.58;;;;;;;9.20;90.71;99038.59;1770628;80;21165;-81
2022/10/20 09:20:03;;;;;;;8.35;7.25;;;;;;;9.18;87.16;99034.80;1754378;80;20888;-78
2022/10/20 09:22:29;;;;;;;6.75;4.37;;;;;;;9.27;89.76;99031.96;1765287;80;21067;-78
2022/10/20 09:24:56;;;;;;;8.00;4.85;;;;;;;9.42;89.29;99026.52;1743205;80;20948;-78
2022/10/20 09:27:32;;;;;;;7.78;4.40;;;;;;;9.58;88.19;99024.32;1740316;79;21106;-78
2022/10/20 09:30:06;;;;;;;6.47;4.70;;;;;;;9.67;86.46;99021.47;1709774;81;20997;-81
2022/10/20 09:32:33;;;;;;;13.22;7.47;;;;;;;9.77;85.93;99026.20;1712798;80;20976;-81
2022/10/20 09:35:25;;;;;;;8.00;5.10;;;;;;;9.84;86.84;99019.55;1742877;80;21590;-81
2022/10/20 09:37:56;;;;;;;7.55;4.55;;;;;;;9.85;85.74;99021.71;1750826;81;21062;-81
2022/10/20 09:40:24;;;;;;;5.78;3.95;;;;;;;9.84;84.77;99022.78;1732885;81;21327;-78
2022/10/20 09:43:03;;;;;;;12.23;4.20;;;;;;;9.81;86.09;99019.20;1735427;81;21045;-78
2022/10/20 09:45:31;;;;;;;6.20;4.55;;;;;;;9.90;85.74;99014.45;1752115;80;21100;-81
2022/10/20 09:48:21;;;;;;;7.40;3.83;;;;;;;10.05;86.74;99014.38;1762233;79;21037;-81
2022/10/20 09:50:51;;;;;;;54.42;24.23;;;;;;;10.07;83.01;99017.11;1756402;79;21153;-78
2022/10/20 09:53:19;;;;;;;12.23;7.40;;;;;;;10.21;85.69;99024.86;1749631;79;21205;-81
2022/10/20 09:55:49;;;;;;;8.55;4.10;;;;;;;10.22;80.81;99008.89;1746391;79;21385;-81
2022/10/20 09:58:36;;;;;;;19.82;13.50;;;;;;;10.30;83.26;99012.54;1746287;79;21060;-81
2022/10/20 10:01:14;;;;;;;6.20;3.60;;;;;;;10.39;82.40;99012.38;1742190;81;21606;-81
2022/10/20 10:03:46;;;;;;;5.12;3.20;;;;;;;10.44;81.37;99009.73;1747837;81;20998;-77
2022/10/20 10:06:40;;;;;;;4.35;2.33;;;;;;;10.47;78.85;99010.56;1750903;79;21809;-78
2022/10/20 10:09:30;;;;;;;3.95;2.15;;;;;;;10.54;77.49;99004.41;1748322;79;20976;-78
2022/10/20 10:11:59;;;;;;;4.33;2.45;;;;;;;10.69;72.23;99005.11;1750908;79;20977;-78
2022/10/20 10:14:26;;;;;;;3.70;1.77;;;;;;;10.79;75.79;98994.89;1742585;81;21035;-78
2022/10/20 10:16:52;;;;;;;3.90;2.90;;;;;;;10.86;76.29;98994.15;1749408;79;21502;-77
2022/10/20 10:19:21;;;;;;;6.15;2.95;;;;;;;10.89;67.58;98986.30;1754066;81;21040;-78
2022/10/20 10:21:54;;;;;;;3.47;2.27;;;;;;;10.94;72.64;98989.61;1732097;82;21619;-81
2022/10/20 10:24:42;;;;;;;7.00;3.83;;;;;;;10.94;71.91;98990.42;1741141;79;21087;-78
2022/10/20 10:27:29;;;;;;;9.08;4.05;;;;;;;11.00;75.56;98982.59;1745153;79;21016;-78
2022/10/20 10:29:57;;;;;;;8.55;5.17;;;;;;;11.04;75.49;98983.45;1739544;81;21039;-78
2022/10/20 10:32:26;;;;;;;5.80;2.98;;;;;;;11.04;76.09;98980.73;1714799;81;21940;-78
2022/10/20 10:35:02;;;;;;;;;;;;;;;11.05;78.25;98980.47;1755842;81;21056;-78
2022/10/20 10:37:28;;;;;;;9.08;2.90;;;;;;;11.07;78.05;98975.59;1764702;79;20207;-78
2022/10/20 10:39:54;;;;;;;3.85;2.60;;;;;;;11.15;77.73;98971.59;1768299;79;20944;-81
2022/10/20 10:42:43;;;;;;;3.75;2.17;;;;;;;11.20;78.42;98971.09;1745860;79;20990;-78
2022/10/20 10:45:39;;;;;;;5.95;2.33;;;;;;;11.27;77.19;98969.49;1760853;79;21945;-78
2022/10/20 10:48:37;;;;;;;4.60;2.60;;;;;;;11.34;77.88;98968.73;1762807;79;21034;-78
2022/10/20 10:51:36;;;;;;;11.53;3.62;;;;;;;11.39;78.14;98971.48;1758814;79;20977;-81
2022/10/20 10:54:32;;;;;;;6.08;2.72;;;;;;;11.45;76.85;98969.61;1761533;79;21012;-81
2022/10/20 10:57:27;;;;;;;13.38;5.53;;;;;;;11.46;78.26;98966.66;1762531;79;21105;-81
2022/10/20 10:59:53;;;;;;;5.05;1.87;;;;;;;11.54;76.29;98963.45;1753371;79;21011;-81
2022/10/20 11:03:12;;;;;;;5.53;2.33;;;;;;;11.55;75.79;98953.41;1744626;79;21547;-81
2022/10/20 11:06:05;;;;;;;3.70;2.10;;;;;;;11.57;74.31;98953.41;1756667;79;21050;-78
2022/10/20 11:08:43;;;;;;;3.30;2.33;;;;;;;11.60;72.00;98950.70;1759048;79;21193;-82
2022/10/20 11:11:39;;;;;;;4.78;3.33;;;;;;;11.49;66.68;98956.63;1749065;79;22352;-78
2022/10/20 11:14:16;;;;;;;5.87;3.70;;;;;;;11.48;71.62;98944.14;1749079;79;22053;-78
2022/10/20 11:17:11;;;;;;;5.55;2.92;;;;;;;11.50;73.56;98937.89;1757031;79;20965;-81
2022/10/20 11:20:13;;;;;;;3.42;2.35;;;;;;;11.50;72.11;98937.89;1745501;79;21015;-81
2022/10/20 11:23:14;;;;;;;3.25;2.00;;;;;;;11.55;73.57;98931.15;1762032;81;21006;-78
2022/10/20 11:26:01;;;;;;;4.90;1.82;;;;;;;11.58;69.30;98925.72;1749010;79;21122;-78
2022/10/20 11:28:43;;;;;;;2.30;1.62;;;;;;;11.63;68.97;98926.30;1749787;79;21134;-80
2022/10/20 11:31:05;;;;;;;3.55;2.12;;;;;;;11.63;68.91;98923.59;1744697;81;21431;-78
2022/10/20 11:33:44;;;;;;;3.80;1.80;;;;;;;11.59;67.98;98913.78;1742167;79;20988;-78
2022/10/20 11:36:13;;;;;;;;;;;;;;;11.59;68.30;98917.31;1771232;79;21122;-80
2022/10/20 11:38:44;;;;;;;4.60;1.72;;;;;;;11.55;68.17;98913.51;1766386;79;20527;-78